sensor_id;sensor_type;location;lat;lon;timestamp;temperature;humidity
61841;DHT22;47773;53.174;6.614;2023-12-14T00:01:33;5.10;99.90
61841;DHT22;47773;53.174;6.614;2023-12-14T00:03:59;5.10;99.90
61841;DHT22;47773;53.174;6.614;2023-12-14T00:06:24;5.10;99.90
61841;DHT22;47773;53.174;6.614;2023-12-14T00:08:50;5.10;99.90
61841;DHT22;47773;53.174;6.614;2023-12-14T00:11:16;5.10;99.90
61841;DHT22;47773;53.174;6.614;2023-12-14T00:13:42;5.10;99.90
61841;DHT22;47773;53.174;6.614;2023-12-14T00:16:08;5.10;99.90
61841;DHT22;47773;53.174;6.614;2023-12-14T00:18:33;5.10;99.90
61841;DHT22;47773;53.174;6.614;2023-12-14T00:20:59;5.10;99.90
61841;DHT22;47773;53.174;6.614;2023-12-14T00:23:25;5.10;99.90
61841;DHT22;47773;53.174;6.614;2023-12-14T00:25:50;5.10;99.90
61841;DHT22;47773;53.174;6.614;2023-12-14T00:28:16;5.10;99.90
61841;DHT22;47773;53.174;6.614;2023-12-14T00:30:42;5.10;99.90
61841;DHT22;47773;53.174;6.614;2023-12-14T00:33:08;5.10;99.90
61841;DHT22;47773;53.174;6.614;2023-12-14T00:35:33;5.10;99.90
61841;DHT22;47773;53.174;6.614;2023-12-14T00:37:59;5.10;99.90
61841;DHT22;47773;53.174;6.614;2023-12-14T00:40:25;5.10;99.90
61841;DHT22;47773;53.174;6.614;2023-12-14T00:42:50;5.10;99.90
61841;DHT22;47773;53.174;6.614;2023-12-14T00:45:16;5.10;99.90
61841;DHT22;47773;53.174;6.614;2023-12-14T00:47:42;5.10;99.90
61841;DHT22;47773;53.174;6.614;2023-12-14T00:50:08;5.10;99.90
61841;DHT22;47773;53.174;6.614;2023-12-14T00:52:34;5.10;99.90
61841;DHT22;47773;53.174;6.614;2023-12-14T00:54:59;5.10;99.90
61841;DHT22;47773;53.174;6.614;2023-12-14T00:57:25;5.10;99.90
61841;DHT22;47773;53.174;6.614;2023-12-14T00:59:50;5.10;99.90
61841;DHT22;47773;53.174;6.614;2023-12-14T01:02:16;5.10;99.90
61841;DHT22;47773;53.174;6.614;2023-12-14T01:04:42;5.10;99.90
61841;DHT22;47773;53.174;6.614;2023-12-14T01:07:08;5.10;99.90
61841;DHT22;47773;53.174;6.614;2023-12-14T01:09:34;5.10;99.90
61841;DHT22;47773;53.174;6.614;2023-12-14T01:11:59;5.10;99.90
61841;DHT22;47773;53.174;6.614;2023-12-14T01:14:25;5.00;99.90
61841;DHT22;47773;53.174;6.614;2023-12-14T01:16:50;5.00;99.90
61841;DHT22;47773;53.174;6.614;2023-12-14T01:19:16;5.00;99.90
61841;DHT22;47773;53.174;6.614;2023-12-14T01:21:42;5.00;99.90
61841;DHT22;47773;53.174;6.614;2023-12-14T01:24:08;5.00;99.90
61841;DHT22;47773;53.174;6.614;2023-12-14T01:26:34;5.00;99.90
61841;DHT22;47773;53.174;6.614;2023-12-14T01:28:59;5.00;99.90
61841;DHT22;47773;53.174;6.614;2023-12-14T01:31:25;5.00;99.90
61841;DHT22;47773;53.174;6.614;2023-12-14T01:33:51;5.00;99.90
61841;DHT22;47773;53.174;6.614;2023-12-14T01:36:24;5.00;99.90
61841;DHT22;47773;53.174;6.614;2023-12-14T01:38:50;5.00;99.90
61841;DHT22;47773;53.174;6.614;2023-12-14T01:41:17;5.00;99.90
61841;DHT22;47773;53.174;6.614;2023-12-14T01:43:43;5.00;99.90
61841;DHT22;47773;53.174;6.614;2023-12-14T01:46:09;5.00;99.90
61841;DHT22;47773;53.174;6.614;2023-12-14T01:48:34;5.00;99.90
61841;DHT22;47773;53.174;6.614;2023-12-14T01:51:00;5.00;99.90
61841;DHT22;47773;53.174;6.614;2023-12-14T01:53:26;5.00;99.90
61841;DHT22;47773;53.174;6.614;2023-12-14T01:55:52;5.00;99.90
61841;DHT22;47773;53.174;6.614;2023-12-14T01:58:18;5.00;99.90
61841;DHT22;47773;53.174;6.614;2023-12-14T02:03:18;5.00;99.90
61841;DHT22;47773;53.174;6.614;2023-12-14T02:05:44;5.00;99.90
61841;DHT22;47773;53.174;6.614;2023-12-14T02:08:10;5.00;99.90
61841;DHT22;47773;53.174;6.614;2023-12-14T02:10:35;5.00;99.90
61841;DHT22;47773;53.174;6.614;2023-12-14T02:13:02;5.00;99.90
61841;DHT22;47773;53.174;6.614;2023-12-14T02:15:28;5.00;99.90
61841;DHT22;47773;53.174;6.614;2023-12-14T02:17:53;5.00;99.90
61841;DHT22;47773;53.174;6.614;2023-12-14T02:20:19;5.00;99.90
61841;DHT22;47773;53.174;6.614;2023-12-14T02:22:49;5.00;99.90
61841;DHT22;47773;53.174;6.614;2023-12-14T02:25:19;5.00;99.90
61841;DHT22;47773;53.174;6.614;2023-12-14T02:27:45;5.00;99.90
61841;DHT22;47773;53.174;6.614;2023-12-14T02:30:11;5.00;99.90
61841;DHT22;47773;53.174;6.614;2023-12-14T02:32:38;5.00;99.90
61841;DHT22;47773;53.174;6.614;2023-12-14T02:35:05;5.00;99.90
61841;DHT22;47773;53.174;6.614;2023-12-14T02:37:31;5.00;99.90
61841;DHT22;47773;53.174;6.614;2023-12-14T02:39:57;5.00;99.90
61841;DHT22;47773;53.174;6.614;2023-12-14T02:42:23;5.00;99.90
61841;DHT22;47773;53.174;6.614;2023-12-14T02:44:49;5.00;99.90
61841;DHT22;47773;53.174;6.614;2023-12-14T02:47:15;5.00;99.90
61841;DHT22;47773;53.174;6.614;2023-12-14T02:49:42;5.00;99.90
61841;DHT22;47773;53.174;6.614;2023-12-14T02:52:08;5.00;99.90
61841;DHT22;47773;53.174;6.614;2023-12-14T02:54:33;5.00;99.90
61841;DHT22;47773;53.174;6.614;2023-12-14T02:56:59;5.00;99.90
61841;DHT22;47773;53.174;6.614;2023-12-14T02:59:24;5.00;99.90
61841;DHT22;47773;53.174;6.614;2023-12-14T03:01:50;5.00;99.90
61841;DHT22;47773;53.174;6.614;2023-12-14T03:04:16;5.00;99.90
61841;DHT22;47773;53.174;6.614;2023-12-14T03:06:41;5.00;99.90
61841;DHT22;47773;53.174;6.614;2023-12-14T03:09:07;5.00;99.90
61841;DHT22;47773;53.174;6.614;2023-12-14T03:11:33;5.00;99.90
61841;DHT22;47773;53.174;6.614;2023-12-14T03:13:59;5.00;99.90
61841;DHT22;47773;53.174;6.614;2023-12-14T03:16:24;5.00;99.90
61841;DHT22;47773;53.174;6.614;2023-12-14T03:18:50;5.00;99.90
61841;DHT22;47773;53.174;6.614;2023-12-14T03:21:19;5.00;99.90
61841;DHT22;47773;53.174;6.614;2023-12-14T03:23:45;5.00;99.90
61841;DHT22;47773;53.174;6.614;2023-12-14T03:26:11;5.00;99.90
61841;DHT22;47773;53.174;6.614;2023-12-14T03:28:37;5.00;99.90
61841;DHT22;47773;53.174;6.614;2023-12-14T03:31:03;5.00;99.90
61841;DHT22;47773;53.174;6.614;2023-12-14T03:33:28;5.00;99.90
61841;DHT22;47773;53.174;6.614;2023-12-14T03:35:55;5.10;99.90
61841;DHT22;47773;53.174;6.614;2023-12-14T03:38:20;5.10;99.90
61841;DHT22;47773;53.174;6.614;2023-12-14T03:40:46;5.10;99.90
61841;DHT22;47773;53.174;6.614;2023-12-14T03:43:12;5.10;99.90
61841;DHT22;47773;53.174;6.614;2023-12-14T03:45:37;5.10;99.90
61841;DHT22;47773;53.174;6.614;2023-12-14T03:48:03;5.10;99.90
61841;DHT22;47773;53.174;6.614;2023-12-14T03:50:29;5.10;99.90
61841;DHT22;47773;53.174;6.614;2023-12-14T03:52:54;5.10;99.90
61841;DHT22;47773;53.174;6.614;2023-12-14T03:55:20;5.10;99.90
61841;DHT22;47773;53.174;6.614;2023-12-14T03:57:46;5.10;99.90
61841;DHT22;47773;53.174;6.614;2023-12-14T04:00:12;5.10;99.90
61841;DHT22;47773;53.174;6.614;2023-12-14T04:02:39;5.10;99.90
61841;DHT22;47773;53.174;6.614;2023-12-14T04:05:09;5.10;99.90
61841;DHT22;47773;53.174;6.614;2023-12-14T04:07:36;5.00;99.90
61841;DHT22;47773;53.174;6.614;2023-12-14T04:10:02;5.00;99.90
61841;DHT22;47773;53.174;6.614;2023-12-14T04:12:28;5.00;99.90
61841;DHT22;47773;53.174;6.614;2023-12-14T04:14:53;5.10;99.90
61841;DHT22;47773;53.174;6.614;2023-12-14T04:17:19;5.00;99.90
61841;DHT22;47773;53.174;6.614;2023-12-14T04:19:44;5.10;99.90
61841;DHT22;47773;53.174;6.614;2023-12-14T04:22:10;5.00;99.90
61841;DHT22;47773;53.174;6.614;2023-12-14T04:24:36;5.00;99.90
61841;DHT22;47773;53.174;6.614;2023-12-14T04:27:01;5.00;99.90
61841;DHT22;47773;53.174;6.614;2023-12-14T04:29:27;5.00;99.90
61841;DHT22;47773;53.174;6.614;2023-12-14T04:31:53;5.00;99.90
61841;DHT22;47773;53.174;6.614;2023-12-14T04:34:19;5.00;99.90
61841;DHT22;47773;53.174;6.614;2023-12-14T04:36:48;5.00;99.90
61841;DHT22;47773;53.174;6.614;2023-12-14T04:39:14;5.00;99.90
61841;DHT22;47773;53.174;6.614;2023-12-14T04:41:40;5.00;99.90
61841;DHT22;47773;53.174;6.614;2023-12-14T04:44:05;5.00;99.90
61841;DHT22;47773;53.174;6.614;2023-12-14T04:46:31;5.00;99.90
61841;DHT22;47773;53.174;6.614;2023-12-14T04:48:57;5.00;99.90
61841;DHT22;47773;53.174;6.614;2023-12-14T04:51:22;5.00;99.90
61841;DHT22;47773;53.174;6.614;2023-12-14T04:53:48;5.00;99.90
61841;DHT22;47773;53.174;6.614;2023-12-14T04:56:13;5.00;99.90
61841;DHT22;47773;53.174;6.614;2023-12-14T04:58:40;5.00;99.90
61841;DHT22;47773;53.174;6.614;2023-12-14T05:01:06;5.00;99.90
61841;DHT22;47773;53.174;6.614;2023-12-14T05:03:33;5.00;99.90
61841;DHT22;47773;53.174;6.614;2023-12-14T05:05:59;5.00;99.90
61841;DHT22;47773;53.174;6.614;2023-12-14T05:08:24;5.00;99.90
61841;DHT22;47773;53.174;6.614;2023-12-14T05:10:50;5.00;99.90
61841;DHT22;47773;53.174;6.614;2023-12-14T05:13:16;5.00;99.90
61841;DHT22;47773;53.174;6.614;2023-12-14T05:15:41;5.00;99.90
61841;DHT22;47773;53.174;6.614;2023-12-14T05:18:07;5.00;99.90
61841;DHT22;47773;53.174;6.614;2023-12-14T05:20:34;5.00;99.90
61841;DHT22;47773;53.174;6.614;2023-12-14T05:23:01;5.10;99.90
61841;DHT22;47773;53.174;6.614;2023-12-14T05:25:27;5.10;99.90
61841;DHT22;47773;53.174;6.614;2023-12-14T05:27:53;5.10;99.90
61841;DHT22;47773;53.174;6.614;2023-12-14T05:30:19;5.10;99.90
61841;DHT22;47773;53.174;6.614;2023-12-14T05:32:44;5.10;99.90
61841;DHT22;47773;53.174;6.614;2023-12-14T05:35:10;5.10;99.90
61841;DHT22;47773;53.174;6.614;2023-12-14T05:37:38;5.10;99.90
61841;DHT22;47773;53.174;6.614;2023-12-14T05:40:05;5.10;99.90
61841;DHT22;47773;53.174;6.614;2023-12-14T05:42:30;5.20;99.90
61841;DHT22;47773;53.174;6.614;2023-12-14T05:44:56;5.20;99.90
61841;DHT22;47773;53.174;6.614;2023-12-14T05:47:22;5.20;99.90
61841;DHT22;47773;53.174;6.614;2023-12-14T05:49:47;5.20;99.90
61841;DHT22;47773;53.174;6.614;2023-12-14T05:52:14;5.10;99.90
61841;DHT22;47773;53.174;6.614;2023-12-14T05:54:39;5.10;99.90
61841;DHT22;47773;53.174;6.614;2023-12-14T05:57:05;5.20;99.90
61841;DHT22;47773;53.174;6.614;2023-12-14T05:59:31;5.10;99.90
61841;DHT22;47773;53.174;6.614;2023-12-14T06:01:58;5.20;99.90
61841;DHT22;47773;53.174;6.614;2023-12-14T06:04:24;5.20;99.90
61841;DHT22;47773;53.174;6.614;2023-12-14T06:06:50;5.20;99.90
61841;DHT22;47773;53.174;6.614;2023-12-14T06:09:15;5.20;99.90
61841;DHT22;47773;53.174;6.614;2023-12-14T06:11:43;5.20;99.90
61841;DHT22;47773;53.174;6.614;2023-12-14T06:14:08;5.20;99.90
61841;DHT22;47773;53.174;6.614;2023-12-14T06:16:34;5.30;99.90
61841;DHT22;47773;53.174;6.614;2023-12-14T06:19:00;5.20;99.90
61841;DHT22;47773;53.174;6.614;2023-12-14T06:21:25;5.30;99.90
61841;DHT22;47773;53.174;6.614;2023-12-14T06:23:54;5.30;99.90
61841;DHT22;47773;53.174;6.614;2023-12-14T06:26:19;5.30;99.90
61841;DHT22;47773;53.174;6.614;2023-12-14T06:28:45;5.30;99.90
61841;DHT22;47773;53.174;6.614;2023-12-14T06:31:14;5.30;99.90
61841;DHT22;47773;53.174;6.614;2023-12-14T06:33:41;5.30;99.90
61841;DHT22;47773;53.174;6.614;2023-12-14T06:36:08;5.30;99.90
61841;DHT22;47773;53.174;6.614;2023-12-14T06:38:34;5.30;99.90
61841;DHT22;47773;53.174;6.614;2023-12-14T06:41:01;5.30;99.90
61841;DHT22;47773;53.174;6.614;2023-12-14T06:43:27;5.30;99.90
61841;DHT22;47773;53.174;6.614;2023-12-14T06:45:53;5.30;99.90
61841;DHT22;47773;53.174;6.614;2023-12-14T06:48:19;5.30;99.90
61841;DHT22;47773;53.174;6.614;2023-12-14T06:50:45;5.30;99.90
61841;DHT22;47773;53.174;6.614;2023-12-14T06:53:11;5.30;99.90
61841;DHT22;47773;53.174;6.614;2023-12-14T06:55:36;5.30;99.90
61841;DHT22;47773;53.174;6.614;2023-12-14T06:58:02;5.30;99.90
61841;DHT22;47773;53.174;6.614;2023-12-14T07:00:27;5.30;99.90
61841;DHT22;47773;53.174;6.614;2023-12-14T07:02:55;5.30;99.90
61841;DHT22;47773;53.174;6.614;2023-12-14T07:05:20;5.30;99.90
61841;DHT22;47773;53.174;6.614;2023-12-14T07:07:46;5.30;99.90
61841;DHT22;47773;53.174;6.614;2023-12-14T07:10:12;5.30;99.90
61841;DHT22;47773;53.174;6.614;2023-12-14T07:12:37;5.30;99.90
61841;DHT22;47773;53.174;6.614;2023-12-14T07:15:03;5.30;99.90
61841;DHT22;47773;53.174;6.614;2023-12-14T07:17:29;5.30;99.90
61841;DHT22;47773;53.174;6.614;2023-12-14T07:19:54;5.30;99.90
61841;DHT22;47773;53.174;6.614;2023-12-14T07:22:20;5.30;99.90
61841;DHT22;47773;53.174;6.614;2023-12-14T07:24:46;5.30;99.90
61841;DHT22;47773;53.174;6.614;2023-12-14T07:27:11;5.30;99.90
61841;DHT22;47773;53.174;6.614;2023-12-14T07:29:37;5.30;99.90
61841;DHT22;47773;53.174;6.614;2023-12-14T07:32:03;5.30;99.90
61841;DHT22;47773;53.174;6.614;2023-12-14T07:34:28;5.30;99.90
61841;DHT22;47773;53.174;6.614;2023-12-14T07:36:54;5.30;99.90
61841;DHT22;47773;53.174;6.614;2023-12-14T07:39:20;5.30;99.90
61841;DHT22;47773;53.174;6.614;2023-12-14T07:41:45;5.30;99.90
61841;DHT22;47773;53.174;6.614;2023-12-14T07:44:11;5.30;99.90
61841;DHT22;47773;53.174;6.614;2023-12-14T07:46:37;5.30;99.90
61841;DHT22;47773;53.174;6.614;2023-12-14T07:49:07;5.30;99.90
61841;DHT22;47773;53.174;6.614;2023-12-14T07:51:33;5.30;99.90
61841;DHT22;47773;53.174;6.614;2023-12-14T07:53:59;5.40;99.90
61841;DHT22;47773;53.174;6.614;2023-12-14T07:56:25;5.40;99.90
61841;DHT22;47773;53.174;6.614;2023-12-14T07:58:53;5.40;99.90
61841;DHT22;47773;53.174;6.614;2023-12-14T08:01:19;5.50;99.90
61841;DHT22;47773;53.174;6.614;2023-12-14T08:03:46;5.50;99.90
61841;DHT22;47773;53.174;6.614;2023-12-14T08:06:12;5.50;99.90
61841;DHT22;47773;53.174;6.614;2023-12-14T08:08:37;5.50;99.90
61841;DHT22;47773;53.174;6.614;2023-12-14T08:11:04;5.50;99.90
61841;DHT22;47773;53.174;6.614;2023-12-14T08:13:30;5.50;99.90
61841;DHT22;47773;53.174;6.614;2023-12-14T08:15:56;5.60;99.90
61841;DHT22;47773;53.174;6.614;2023-12-14T08:18:21;5.60;99.90
61841;DHT22;47773;53.174;6.614;2023-12-14T08:20:47;5.60;99.90
61841;DHT22;47773;53.174;6.614;2023-12-14T08:23:12;5.60;99.90
61841;DHT22;47773;53.174;6.614;2023-12-14T08:25:38;5.60;99.90
61841;DHT22;47773;53.174;6.614;2023-12-14T08:28:04;5.70;99.90
61841;DHT22;47773;53.174;6.614;2023-12-14T08:30:30;5.70;99.90
61841;DHT22;47773;53.174;6.614;2023-12-14T08:32:56;5.60;99.90
61841;DHT22;47773;53.174;6.614;2023-12-14T08:35:21;5.60;99.90
61841;DHT22;47773;53.174;6.614;2023-12-14T08:37:47;5.70;99.90
61841;DHT22;47773;53.174;6.614;2023-12-14T08:40:12;5.60;99.90
61841;DHT22;47773;53.174;6.614;2023-12-14T08:42:38;5.70;99.90
61841;DHT22;47773;53.174;6.614;2023-12-14T08:45:04;5.70;99.90
61841;DHT22;47773;53.174;6.614;2023-12-14T08:47:30;5.70;99.90
61841;DHT22;47773;53.174;6.614;2023-12-14T08:49:56;5.70;99.90
61841;DHT22;47773;53.174;6.614;2023-12-14T08:52:21;5.80;99.90
61841;DHT22;47773;53.174;6.614;2023-12-14T08:54:47;5.70;99.90
61841;DHT22;47773;53.174;6.614;2023-12-14T08:57:13;5.80;99.90
61841;DHT22;47773;53.174;6.614;2023-12-14T08:59:38;5.80;99.90
61841;DHT22;47773;53.174;6.614;2023-12-14T09:02:04;5.80;99.90
61841;DHT22;47773;53.174;6.614;2023-12-14T09:04:30;5.80;99.90
61841;DHT22;47773;53.174;6.614;2023-12-14T09:06:56;5.80;99.90
61841;DHT22;47773;53.174;6.614;2023-12-14T09:09:21;5.80;99.90
61841;DHT22;47773;53.174;6.614;2023-12-14T09:11:47;5.90;99.90
61841;DHT22;47773;53.174;6.614;2023-12-14T09:14:12;5.90;99.90
61841;DHT22;47773;53.174;6.614;2023-12-14T09:16:38;6.00;99.90
61841;DHT22;47773;53.174;6.614;2023-12-14T09:19:04;6.10;99.90
61841;DHT22;47773;53.174;6.614;2023-12-14T09:21:29;6.10;99.90
61841;DHT22;47773;53.174;6.614;2023-12-14T09:23:55;6.10;99.90
61841;DHT22;47773;53.174;6.614;2023-12-14T09:26:22;6.10;99.90
61841;DHT22;47773;53.174;6.614;2023-12-14T09:28:48;6.10;99.90
61841;DHT22;47773;53.174;6.614;2023-12-14T09:31:13;6.10;99.90
61841;DHT22;47773;53.174;6.614;2023-12-14T09:33:41;6.10;99.90
61841;DHT22;47773;53.174;6.614;2023-12-14T09:36:07;6.10;99.90
61841;DHT22;47773;53.174;6.614;2023-12-14T09:38:32;6.20;99.90
61841;DHT22;47773;53.174;6.614;2023-12-14T09:40:58;6.20;99.90
61841;DHT22;47773;53.174;6.614;2023-12-14T09:43:24;6.20;99.90
61841;DHT22;47773;53.174;6.614;2023-12-14T09:45:50;6.30;99.90
61841;DHT22;47773;53.174;6.614;2023-12-14T09:48:16;6.20;99.90
61841;DHT22;47773;53.174;6.614;2023-12-14T09:50:42;6.20;99.90
61841;DHT22;47773;53.174;6.614;2023-12-14T09:53:08;6.30;99.90
61841;DHT22;47773;53.174;6.614;2023-12-14T09:55:34;6.20;99.90
61841;DHT22;47773;53.174;6.614;2023-12-14T09:58:00;6.30;99.90
61841;DHT22;47773;53.174;6.614;2023-12-14T10:00:33;6.30;99.90
61841;DHT22;47773;53.174;6.614;2023-12-14T10:03:23;6.30;99.90
61841;DHT22;47773;53.174;6.614;2023-12-14T10:05:49;6.30;99.90
61841;DHT22;47773;53.174;6.614;2023-12-14T10:08:16;6.30;99.90
61841;DHT22;47773;53.174;6.614;2023-12-14T10:10:42;6.30;99.90
61841;DHT22;47773;53.174;6.614;2023-12-14T10:13:09;6.30;99.90
61841;DHT22;47773;53.174;6.614;2023-12-14T10:15:45;6.40;99.90
61841;DHT22;47773;53.174;6.614;2023-12-14T10:18:23;6.40;99.90
61841;DHT22;47773;53.174;6.614;2023-12-14T10:20:50;6.40;99.90
61841;DHT22;47773;53.174;6.614;2023-12-14T10:23:15;6.40;99.90
61841;DHT22;47773;53.174;6.614;2023-12-14T10:25:42;6.40;99.90
61841;DHT22;47773;53.174;6.614;2023-12-14T10:28:08;6.30;99.90
61841;DHT22;47773;53.174;6.614;2023-12-14T10:30:34;6.40;99.90
61841;DHT22;47773;53.174;6.614;2023-12-14T10:33:00;6.40;99.90
61841;DHT22;47773;53.174;6.614;2023-12-14T10:35:26;6.40;99.90
61841;DHT22;47773;53.174;6.614;2023-12-14T10:37:52;6.40;99.90
61841;DHT22;47773;53.174;6.614;2023-12-14T10:40:19;6.50;99.90
61841;DHT22;47773;53.174;6.614;2023-12-14T10:42:46;6.50;99.90
61841;DHT22;47773;53.174;6.614;2023-12-14T10:45:13;6.40;99.90
61841;DHT22;47773;53.174;6.614;2023-12-14T10:47:45;6.50;99.90
61841;DHT22;47773;53.174;6.614;2023-12-14T10:50:12;6.50;99.90
61841;DHT22;47773;53.174;6.614;2023-12-14T10:52:41;6.50;99.90
61841;DHT22;47773;53.174;6.614;2023-12-14T10:55:14;6.60;99.90
61841;DHT22;47773;53.174;6.614;2023-12-14T10:57:41;6.50;99.90
61841;DHT22;47773;53.174;6.614;2023-12-14T11:00:08;6.60;99.90
61841;DHT22;47773;53.174;6.614;2023-12-14T11:02:41;6.50;99.90
61841;DHT22;47773;53.174;6.614;2023-12-14T11:05:12;6.50;99.90
61841;DHT22;47773;53.174;6.614;2023-12-14T11:07:49;6.50;99.90
61841;DHT22;47773;53.174;6.614;2023-12-14T11:10:23;6.60;99.90
61841;DHT22;47773;53.174;6.614;2023-12-14T11:13:02;6.60;99.90
61841;DHT22;47773;53.174;6.614;2023-12-14T11:15:33;6.60;99.90
61841;DHT22;47773;53.174;6.614;2023-12-14T11:20:50;6.70;99.90
61841;DHT22;47773;53.174;6.614;2023-12-14T11:23:28;6.70;99.90
61841;DHT22;47773;53.174;6.614;2023-12-14T11:25:59;6.70;99.90
61841;DHT22;47773;53.174;6.614;2023-12-14T11:28:27;6.70;99.90
61841;DHT22;47773;53.174;6.614;2023-12-14T11:30:54;6.70;99.90
61841;DHT22;47773;53.174;6.614;2023-12-14T11:33:21;6.70;99.90
61841;DHT22;47773;53.174;6.614;2023-12-14T11:35:47;6.70;99.90
61841;DHT22;47773;53.174;6.614;2023-12-14T11:38:12;6.70;99.90
61841;DHT22;47773;53.174;6.614;2023-12-14T11:40:48;6.80;99.90
61841;DHT22;47773;53.174;6.614;2023-12-14T11:43:14;6.80;99.90
61841;DHT22;47773;53.174;6.614;2023-12-14T11:45:41;6.80;99.90
61841;DHT22;47773;53.174;6.614;2023-12-14T11:48:09;6.80;99.90
61841;DHT22;47773;53.174;6.614;2023-12-14T11:50:40;6.80;99.90
61841;DHT22;47773;53.174;6.614;2023-12-14T11:53:07;6.90;99.90
61841;DHT22;47773;53.174;6.614;2023-12-14T11:55:37;6.90;99.90
61841;DHT22;47773;53.174;6.614;2023-12-14T11:58:04;6.90;99.90
61841;DHT22;47773;53.174;6.614;2023-12-14T12:00:30;6.90;99.90
61841;DHT22;47773;53.174;6.614;2023-12-14T12:03:14;6.90;99.90
61841;DHT22;47773;53.174;6.614;2023-12-14T12:05:43;6.80;99.90
61841;DHT22;47773;53.174;6.614;2023-12-14T12:08:13;6.80;99.90
61841;DHT22;47773;53.174;6.614;2023-12-14T12:10:40;6.80;99.90
61841;DHT22;47773;53.174;6.614;2023-12-14T12:13:17;6.80;99.90
61841;DHT22;47773;53.174;6.614;2023-12-14T12:15:44;6.80;99.90
61841;DHT22;47773;53.174;6.614;2023-12-14T12:18:12;6.80;99.90
61841;DHT22;47773;53.174;6.614;2023-12-14T12:20:37;6.80;99.90
61841;DHT22;47773;53.174;6.614;2023-12-14T12:23:03;6.90;99.90
61841;DHT22;47773;53.174;6.614;2023-12-14T12:25:30;6.90;99.90
61841;DHT22;47773;53.174;6.614;2023-12-14T12:27:59;6.90;99.90
61841;DHT22;47773;53.174;6.614;2023-12-14T12:30:25;6.90;99.90
61841;DHT22;47773;53.174;6.614;2023-12-14T12:32:51;6.90;99.90
61841;DHT22;47773;53.174;6.614;2023-12-14T12:35:18;6.90;99.90
61841;DHT22;47773;53.174;6.614;2023-12-14T12:37:44;6.90;99.90
61841;DHT22;47773;53.174;6.614;2023-12-14T12:40:10;6.90;99.90
61841;DHT22;47773;53.174;6.614;2023-12-14T12:42:36;6.90;99.90
61841;DHT22;47773;53.174;6.614;2023-12-14T12:45:02;6.90;99.90
61841;DHT22;47773;53.174;6.614;2023-12-14T12:47:27;6.90;99.90
61841;DHT22;47773;53.174;6.614;2023-12-14T12:49:53;6.80;99.90
61841;DHT22;47773;53.174;6.614;2023-12-14T12:52:18;6.90;99.90
61841;DHT22;47773;53.174;6.614;2023-12-14T12:54:44;6.80;99.90
61841;DHT22;47773;53.174;6.614;2023-12-14T12:57:10;6.80;99.90
61841;DHT22;47773;53.174;6.614;2023-12-14T12:59:35;6.80;99.90
61841;DHT22;47773;53.174;6.614;2023-12-14T13:02:01;6.80;99.90
61841;DHT22;47773;53.174;6.614;2023-12-14T13:04:28;6.70;99.90
61841;DHT22;47773;53.174;6.614;2023-12-14T13:06:56;6.70;99.90
61841;DHT22;47773;53.174;6.614;2023-12-14T13:09:22;6.70;99.90
61841;DHT22;47773;53.174;6.614;2023-12-14T13:11:49;6.70;99.90
61841;DHT22;47773;53.174;6.614;2023-12-14T13:14:15;6.70;99.90
61841;DHT22;47773;53.174;6.614;2023-12-14T13:16:41;6.70;99.90
61841;DHT22;47773;53.174;6.614;2023-12-14T13:19:08;6.70;99.90
61841;DHT22;47773;53.174;6.614;2023-12-14T13:21:34;6.70;99.90
61841;DHT22;47773;53.174;6.614;2023-12-14T13:24:00;6.70;99.90
61841;DHT22;47773;53.174;6.614;2023-12-14T13:26:25;6.70;99.90
61841;DHT22;47773;53.174;6.614;2023-12-14T13:28:52;6.70;99.90
61841;DHT22;47773;53.174;6.614;2023-12-14T13:31:17;6.70;99.90
61841;DHT22;47773;53.174;6.614;2023-12-14T13:33:43;6.70;99.90
61841;DHT22;47773;53.174;6.614;2023-12-14T13:36:09;6.70;99.90
61841;DHT22;47773;53.174;6.614;2023-12-14T13:38:35;6.80;99.90
61841;DHT22;47773;53.174;6.614;2023-12-14T13:41:04;6.90;99.90
61841;DHT22;47773;53.174;6.614;2023-12-14T13:43:31;6.90;99.90
61841;DHT22;47773;53.174;6.614;2023-12-14T13:45:57;6.80;99.90
61841;DHT22;47773;53.174;6.614;2023-12-14T13:48:27;6.80;99.90
61841;DHT22;47773;53.174;6.614;2023-12-14T13:50:53;6.80;99.90
61841;DHT22;47773;53.174;6.614;2023-12-14T13:53:19;6.80;99.90
61841;DHT22;47773;53.174;6.614;2023-12-14T13:55:46;6.70;99.90
61841;DHT22;47773;53.174;6.614;2023-12-14T13:58:12;6.70;99.90
61841;DHT22;47773;53.174;6.614;2023-12-14T14:00:38;6.70;99.90
61841;DHT22;47773;53.174;6.614;2023-12-14T14:03:05;6.70;99.90
61841;DHT22;47773;53.174;6.614;2023-12-14T14:05:31;6.70;99.90
61841;DHT22;47773;53.174;6.614;2023-12-14T14:07:57;6.70;99.90
61841;DHT22;47773;53.174;6.614;2023-12-14T14:10:23;6.70;99.90
61841;DHT22;47773;53.174;6.614;2023-12-14T14:12:48;6.70;99.90
61841;DHT22;47773;53.174;6.614;2023-12-14T14:15:14;6.70;99.90
61841;DHT22;47773;53.174;6.614;2023-12-14T14:17:40;6.70;99.90
61841;DHT22;47773;53.174;6.614;2023-12-14T14:20:06;6.70;99.90
61841;DHT22;47773;53.174;6.614;2023-12-14T14:22:32;6.70;99.90
61841;DHT22;47773;53.174;6.614;2023-12-14T14:24:58;6.70;99.90
61841;DHT22;47773;53.174;6.614;2023-12-14T14:27:24;6.70;99.90
61841;DHT22;47773;53.174;6.614;2023-12-14T14:29:50;6.70;99.90
61841;DHT22;47773;53.174;6.614;2023-12-14T14:32:19;6.70;99.90
61841;DHT22;47773;53.174;6.614;2023-12-14T14:34:44;6.70;99.90
61841;DHT22;47773;53.174;6.614;2023-12-14T14:37:10;6.70;99.90
61841;DHT22;47773;53.174;6.614;2023-12-14T14:39:36;6.70;99.90
61841;DHT22;47773;53.174;6.614;2023-12-14T14:42:05;6.70;99.90
61841;DHT22;47773;53.174;6.614;2023-12-14T14:44:31;6.70;99.90
61841;DHT22;47773;53.174;6.614;2023-12-14T14:46:57;6.70;99.90
61841;DHT22;47773;53.174;6.614;2023-12-14T14:49:22;6.70;99.90
61841;DHT22;47773;53.174;6.614;2023-12-14T14:51:48;6.70;99.90
61841;DHT22;47773;53.174;6.614;2023-12-14T14:54:14;6.60;99.90
61841;DHT22;47773;53.174;6.614;2023-12-14T14:56:40;6.60;99.90
61841;DHT22;47773;53.174;6.614;2023-12-14T14:59:06;6.60;99.90
61841;DHT22;47773;53.174;6.614;2023-12-14T15:01:34;6.60;99.90
61841;DHT22;47773;53.174;6.614;2023-12-14T15:03:59;6.60;99.90
61841;DHT22;47773;53.174;6.614;2023-12-14T15:06:25;6.50;99.90
61841;DHT22;47773;53.174;6.614;2023-12-14T15:08:51;6.50;99.90
61841;DHT22;47773;53.174;6.614;2023-12-14T15:11:17;6.50;99.90
61841;DHT22;47773;53.174;6.614;2023-12-14T15:13:42;6.50;99.90
61841;DHT22;47773;53.174;6.614;2023-12-14T15:16:08;6.50;99.90
61841;DHT22;47773;53.174;6.614;2023-12-14T15:18:34;6.50;99.90
61841;DHT22;47773;53.174;6.614;2023-12-14T15:21:12;6.50;99.90
61841;DHT22;47773;53.174;6.614;2023-12-14T15:23:38;6.50;99.90
61841;DHT22;47773;53.174;6.614;2023-12-14T15:26:04;6.50;99.90
61841;DHT22;47773;53.174;6.614;2023-12-14T15:28:30;6.50;99.90
61841;DHT22;47773;53.174;6.614;2023-12-14T15:30:56;6.40;99.90
61841;DHT22;47773;53.174;6.614;2023-12-14T15:33:22;6.40;99.90
61841;DHT22;47773;53.174;6.614;2023-12-14T15:35:47;6.40;99.90
61841;DHT22;47773;53.174;6.614;2023-12-14T15:38:13;6.40;99.90
61841;DHT22;47773;53.174;6.614;2023-12-14T15:40:39;6.40;99.90
61841;DHT22;47773;53.174;6.614;2023-12-14T15:43:06;6.40;99.90
61841;DHT22;47773;53.174;6.614;2023-12-14T15:45:32;6.40;99.90